sensor_id;sensor_type;location;lat;lon;timestamp;pressure;altitude;pressure_sealevel;temperature;humidity
17072;BME280;7731;50.720;6.912;2023-03-04T00:00:41;100988.38;;;0.42;100.00
17072;BME280;7731;50.720;6.912;2023-03-04T00:03:15;100974.91;;;0.40;100.00
17072;BME280;7731;50.720;6.912;2023-03-04T00:05:45;100980.06;;;0.59;100.00
17072;BME280;7731;50.720;6.912;2023-03-04T00:08:18;100974.09;;;0.50;100.00
17072;BME280;7731;50.720;6.912;2023-03-04T00:10:49;100974.88;;;0.37;100.00
17072;BME280;7731;50.720;6.912;2023-03-04T00:13:20;100981.59;;;0.35;100.00
17072;BME280;7731;50.720;6.912;2023-03-04T00:15:51;100977.44;;;0.42;100.00
17072;BME280;7731;50.720;6.912;2023-03-04T00:18:21;100975.75;;;0.44;100.00
17072;BME280;7731;50.720;6.912;2023-03-04T00:20:51;100974.06;;;0.44;100.00
17072;BME280;7731;50.720;6.912;2023-03-04T00:23:27;100975.09;;;0.77;100.00
17072;BME280;7731;50.720;6.912;2023-03-04T00:26:00;100974.19;;;0.67;100.00
17072;BME280;7731;50.720;6.912;2023-03-04T00:28:30;100974.13;;;0.60;100.00
17072;BME280;7731;50.720;6.912;2023-03-04T00:31:00;100977.44;;;0.43;100.00
17072;BME280;7731;50.720;6.912;2023-03-04T00:33:31;100975.81;;;0.53;100.00
17072;BME280;7731;50.720;6.912;2023-03-04T00:36:02;100968.19;;;0.48;100.00
17072;BME280;7731;50.720;6.912;2023-03-04T00:38:37;100978.28;;;0.45;100.00
17072;BME280;7731;50.720;6.912;2023-03-04T00:41:07;100972.38;;;0.39;100.00
17072;BME280;7731;50.720;6.912;2023-03-04T00:43:37;100973.22;;;0.42;100.00
17072;BME280;7731;50.720;6.912;2023-03-04T00:46:07;100964.97;;;0.77;100.00
17072;BME280;7731;50.720;6.912;2023-03-04T00:48:37;100959.03;;;0.75;100.00
17072;BME280;7731;50.720;6.912;2023-03-04T00:51:08;100967.38;;;0.49;100.00
17072;BME280;7731;50.720;6.912;2023-03-04T00:53:40;100960.63;;;0.51;100.00
17072;BME280;7731;50.720;6.912;2023-03-04T00:56:10;100967.38;;;0.54;100.00
17072;BME280;7731;50.720;6.912;2023-03-04T00:58:41;100967.34;;;0.48;100.00
17072;BME280;7731;50.720;6.912;2023-03-04T01:01:11;100958.13;;;0.55;100.00
17072;BME280;7731;50.720;6.912;2023-03-04T01:03:44;100967.34;;;0.46;100.00
17072;BME280;7731;50.720;6.912;2023-03-04T01:06:17;100958.09;;;0.48;100.00
17072;BME280;7731;50.720;6.912;2023-03-04T01:08:50;100962.31;;;0.48;100.00
17072;BME280;7731;50.720;6.912;2023-03-04T01:11:21;100959.78;;;0.51;100.00
17072;BME280;7731;50.720;6.912;2023-03-04T01:13:51;100961.50;;;0.60;100.00
17072;BME280;7731;50.720;6.912;2023-03-04T01:16:21;100954.81;;;0.65;100.00
17072;BME280;7731;50.720;6.912;2023-03-04T01:18:51;100956.47;;;0.69;100.00
17072;BME280;7731;50.720;6.912;2023-03-04T01:21:22;100958.16;;;0.61;100.00
17072;BME280;7731;50.720;6.912;2023-03-04T01:23:55;100953.13;;;0.73;100.00
17072;BME280;7731;50.720;6.912;2023-03-04T01:26:25;100948.09;;;0.76;100.00
17072;BME280;7731;50.720;6.912;2023-03-04T01:28:57;100948.91;;;0.75;100.00
17072;BME280;7731;50.720;6.912;2023-03-04T01:31:28;100953.22;;;0.95;100.00
17072;BME280;7731;50.720;6.912;2023-03-04T01:33:58;100945.59;;;0.84;100.00
17072;BME280;7731;50.720;6.912;2023-03-04T01:36:28;100939.63;;;0.68;100.00
17072;BME280;7731;50.720;6.912;2023-03-04T01:39:01;100938.75;;;0.61;100.00
17072;BME280;7731;50.720;6.912;2023-03-04T01:41:31;100937.94;;;0.67;100.00
17072;BME280;7731;50.720;6.912;2023-03-04T01:44:02;100929.59;;;0.86;100.00
17072;BME280;7731;50.720;6.912;2023-03-04T01:46:33;100938.00;;;0.85;100.00
17072;BME280;7731;50.720;6.912;2023-03-04T01:49:05;100932.13;;;0.86;100.00
17072;BME280;7731;50.720;6.912;2023-03-04T01:51:35;100932.91;;;0.76;100.00
17072;BME280;7731;50.720;6.912;2023-03-04T01:54:09;100923.63;;;0.78;100.00
17072;BME280;7731;50.720;6.912;2023-03-04T01:56:39;100927.91;;;0.88;100.00
17072;BME280;7731;50.720;6.912;2023-03-04T01:59:13;100923.63;;;0.72;100.00
17072;BME280;7731;50.720;6.912;2023-03-04T02:01:48;100924.50;;;0.74;100.00
17072;BME280;7731;50.720;6.912;2023-03-04T02:04:23;100927.03;;;0.82;100.00
17072;BME280;7731;50.720;6.912;2023-03-04T02:06:55;100926.16;;;0.75;100.00
17072;BME280;7731;50.720;6.912;2023-03-04T02:09:30;100933.00;;;1.02;100.00
17072;BME280;7731;50.720;6.912;2023-03-04T02:12:03;100912.78;;;1.19;100.00
17072;BME280;7731;50.720;6.912;2023-03-04T02:14:34;100922.03;;;0.99;100.00
17072;BME280;7731;50.720;6.912;2023-03-04T02:17:09;100917.75;;;0.82;100.00
17072;BME280;7731;50.720;6.912;2023-03-04T02:19:49;100912.72;;;0.92;100.00
17072;BME280;7731;50.720;6.912;2023-03-04T02:22:25;100905.94;;;0.81;100.00
17072;BME280;7731;50.720;6.912;2023-03-04T02:25:02;100907.69;;;0.98;100.00
17072;BME280;7731;50.720;6.912;2023-03-04T02:27:38;100905.16;;;1.01;100.00
17072;BME280;7731;50.720;6.912;2023-03-04T02:30:20;100902.59;;;0.85;100.00
17072;BME280;7731;50.720;6.912;2023-03-04T02:32:51;100908.53;;;1.00;100.00
17072;BME280;7731;50.720;6.912;2023-03-04T02:35:22;100911.16;;;1.49;100.00
17072;BME280;7731;50.720;6.912;2023-03-04T02:37:52;100911.91;;;0.93;100.00
17072;BME280;7731;50.720;6.912;2023-03-04T02:40:28;100906.84;;;0.93;100.00
17072;BME280;7731;50.720;6.912;2023-03-04T02:43:02;100903.47;;;1.00;100.00
17072;BME280;7731;50.720;6.912;2023-03-04T02:45:39;100902.63;;;1.01;100.00
17072;BME280;7731;50.720;6.912;2023-03-04T02:48:13;100903.44;;;0.92;100.00
17072;BME280;7731;50.720;6.912;2023-03-04T02:50:47;100903.44;;;0.89;100.00
17072;BME280;7731;50.720;6.912;2023-03-04T02:53:19;100902.63;;;1.01;100.00
17072;BME280;7731;50.720;6.912;2023-03-04T02:55:51;100901.81;;;1.02;100.00
17072;BME280;7731;50.720;6.912;2023-03-04T02:58:24;100904.34;;;1.02;100.00
17072;BME280;7731;50.720;6.912;2023-03-04T03:00:56;100896.75;;;1.00;100.00
17072;BME280;7731;50.720;6.912;2023-03-04T03:03:26;100895.88;;;0.95;100.00
17072;BME280;7731;50.720;6.912;2023-03-04T03:05:58;100890.88;;;1.15;100.00
17072;BME280;7731;50.720;6.912;2023-03-04T03:08:28;100890.00;;;1.09;100.00
17072;BME280;7731;50.720;6.912;2023-03-04T03:10:58;100894.22;;;1.08;100.00
17072;BME280;7731;50.720;6.912;2023-03-04T03:13:31;100897.63;;;1.33;100.00
17072;BME280;7731;50.720;6.912;2023-03-04T03:16:01;100898.47;;;1.24;100.00
17072;BME280;7731;50.720;6.912;2023-03-04T03:18:31;100889.19;;;1.27;100.00
17072;BME280;7731;50.720;6.912;2023-03-04T03:21:02;100890.03;;;1.24;100.00
17072;BME280;7731;50.720;6.912;2023-03-04T03:23:32;100877.34;;;1.13;100.00
17072;BME280;7731;50.720;6.912;2023-03-04T03:26:04;100874.81;;;1.01;100.00
17072;BME280;7731;50.720;6.912;2023-03-04T03:28:39;100878.22;;;1.09;100.00
17072;BME280;7731;50.720;6.912;2023-03-04T03:31:09;100876.53;;;1.23;100.00
17072;BME280;7731;50.720;6.912;2023-03-04T03:33:40;100872.28;;;1.13;100.00
17072;BME280;7731;50.720;6.912;2023-03-04T03:36:10;100873.97;;;1.03;100.00
17072;BME280;7731;50.720;6.912;2023-03-04T03:38:40;100868.03;;;1.03;100.00
17072;BME280;7731;50.720;6.912;2023-03-04T03:41:11;100864.69;;;1.04;100.00
17072;BME280;7731;50.720;6.912;2023-03-04T03:43:44;100865.56;;;1.09;100.00
17072;BME280;7731;50.720;6.912;2023-03-04T03:46:15;100863.88;;;1.11;100.00
17072;BME280;7731;50.720;6.912;2023-03-04T03:48:45;100864.69;;;1.15;100.00
17072;BME280;7731;50.720;6.912;2023-03-04T03:51:18;100866.41;;;1.13;100.00
17072;BME280;7731;50.720;6.912;2023-03-04T03:53:48;100871.44;;;1.10;100.00
17072;BME280;7731;50.720;6.912;2023-03-04T03:56:18;100861.34;;;1.20;100.00
17072;BME280;7731;50.720;6.912;2023-03-04T03:58:52;100857.97;;;1.24;100.00
17072;BME280;7731;50.720;6.912;2023-03-04T04:01:22;100858.81;;;1.33;100.00
17072;BME280;7731;50.720;6.912;2023-03-04T04:03:53;100857.13;;;1.41;100.00
17072;BME280;7731;50.720;6.912;2023-03-04T04:06:23;100852.06;;;1.44;100.00
17072;BME280;7731;50.720;6.912;2023-03-04T04:08:55;100850.38;;;1.21;100.00
17072;BME280;7731;50.720;6.912;2023-03-04T04:11:25;100856.28;;;1.28;100.00
17072;BME280;7731;50.720;6.912;2023-03-04T04:14:06;100857.97;;;1.23;100.00
17072;BME280;7731;50.720;6.912;2023-03-04T04:16:37;100857.06;;;1.87;100.00
17072;BME280;7731;50.720;6.912;2023-03-04T04:19:11;100853.72;;;1.70;100.00
17072;BME280;7731;50.720;6.912;2023-03-04T04:21:44;100845.31;;;1.31;100.00
17072;BME280;7731;50.720;6.912;2023-03-04T04:24:14;100852.03;;;1.53;100.00
17072;BME280;7731;50.720;6.912;2023-03-04T04:26:45;100857.97;;;1.35;100.00
17072;BME280;7731;50.720;6.912;2023-03-04T04:29:18;100858.78;;;1.64;100.00
17072;BME280;7731;50.720;6.912;2023-03-04T04:31:49;100854.59;;;1.41;100.00
17072;BME280;7731;50.720;6.912;2023-03-04T04:34:19;100847.84;;;1.38;100.00
17072;BME280;7731;50.720;6.912;2023-03-04T04:36:50;100845.31;;;1.38;100.00
17072;BME280;7731;50.720;6.912;2023-03-04T04:39:20;100852.06;;;1.47;100.00
17072;BME280;7731;50.720;6.912;2023-03-04T04:41:58;100836.84;;;1.69;100.00
17072;BME280;7731;50.720;6.912;2023-03-04T04:44:30;100850.38;;;1.55;100.00
17072;BME280;7731;50.720;6.912;2023-03-04T04:47:00;100851.19;;;1.70;100.00
17072;BME280;7731;50.720;6.912;2023-03-04T04:49:32;100849.41;;;2.09;100.00
17072;BME280;7731;50.720;6.912;2023-03-04T04:52:03;100846.88;;;2.03;100.00
17072;BME280;7731;50.720;6.912;2023-03-04T04:54:33;100845.16;;;2.26;100.00
17072;BME280;7731;50.720;6.912;2023-03-04T04:57:03;100855.41;;;1.77;100.00
17072;BME280;7731;50.720;6.912;2023-03-04T04:59:36;100847.84;;;1.54;100.00
17072;BME280;7731;50.720;6.912;2023-03-04T05:02:06;100848.69;;;1.57;100.00
17072;BME280;7731;50.720;6.912;2023-03-04T05:04:36;100853.75;;;1.42;100.00
17072;BME280;7731;50.720;6.912;2023-03-04T05:07:07;100855.44;;;1.46;100.00
17072;BME280;7731;50.720;6.912;2023-03-04T05:09:37;100858.78;;;1.67;100.00
17072;BME280;7731;50.720;6.912;2023-03-04T05:12:07;100857.97;;;1.49;100.00
17072;BME280;7731;50.720;6.912;2023-03-04T05:14:40;100858.81;;;1.42;100.00
17072;BME280;7731;50.720;6.912;2023-03-04T05:17:10;100853.75;;;1.48;100.00
17072;BME280;7731;50.720;6.912;2023-03-04T05:19:40;100859.59;;;1.93;100.00
17072;BME280;7731;50.720;6.912;2023-03-04T05:22:12;100857.06;;;1.84;100.00
17072;BME280;7731;50.720;6.912;2023-03-04T05:24:42;100851.88;;;2.34;100.00
17072;BME280;7731;50.720;6.912;2023-03-04T05:27:12;100857.06;;;1.87;100.00
17072;BME280;7731;50.720;6.912;2023-03-04T05:29:45;100853.72;;;1.82;100.00
17072;BME280;7731;50.720;6.912;2023-03-04T05:32:15;100857.09;;;1.78;100.00
17072;BME280;7731;50.720;6.912;2023-03-04T05:34:46;100853.72;;;1.76;100.00
17072;BME280;7731;50.720;6.912;2023-03-04T05:37:16;100857.97;;;1.66;100.00
17072;BME280;7731;50.720;6.912;2023-03-04T05:39:46;100851.97;;;2.12;100.00
17072;BME280;7731;50.720;6.912;2023-03-04T05:42:17;100850.31;;;1.99;100.00
17072;BME280;7731;50.720;6.912;2023-03-04T05:44:49;100858.78;;;1.76;100.00
17072;BME280;7731;50.720;6.912;2023-03-04T05:47:19;100856.16;;;2.10;100.00
17072;BME280;7731;50.720;6.912;2023-03-04T05:49:50;100859.59;;;1.93;100.00
17072;BME280;7731;50.720;6.912;2023-03-04T05:52:20;100862.09;;;2.04;100.00
17072;BME280;7731;50.720;6.912;2023-03-04T05:54:50;100858.78;;;1.82;100.00
17072;BME280;7731;50.720;6.912;2023-03-04T05:57:21;100868.91;;;1.73;100.00
17072;BME280;7731;50.720;6.912;2023-03-04T05:59:53;100865.56;;;1.58;100.00
17072;BME280;7731;50.720;6.912;2023-03-04T06:02:24;100871.44;;;1.73;100.00
17072;BME280;7731;50.720;6.912;2023-03-04T06:04:54;100869.75;;;1.63;100.00
17072;BME280;7731;50.720;6.912;2023-03-04T06:07:24;100868.78;;;2.28;100.00
17072;BME280;7731;50.720;6.912;2023-03-04T06:09:54;100878.19;;;1.91;100.00
17072;BME280;7731;50.720;6.912;2023-03-04T06:12:25;100873.94;;;1.98;100.00
17072;BME280;7731;50.720;6.912;2023-03-04T06:14:58;100877.34;;;1.69;100.00
17072;BME280;7731;50.720;6.912;2023-03-04T06:17:29;100878.22;;;1.78;100.00
17072;BME280;7731;50.720;6.912;2023-03-04T06:19:59;100879.03;;;1.91;100.00
17072;BME280;7731;50.720;6.912;2023-03-04T06:22:31;100882.41;;;1.86;100.00
17072;BME280;7731;50.720;6.912;2023-03-04T06:25:01;100881.53;;;2.04;100.00
17072;BME280;7731;50.720;6.912;2023-03-04T06:27:32;100881.53;;;2.07;100.00
17072;BME280;7731;50.720;6.912;2023-03-04T06:30:07;100884.03;;;2.11;100.00
17072;BME280;7731;50.720;6.912;2023-03-04T06:32:39;100885.72;;;2.23;100.00
17072;BME280;7731;50.720;6.912;2023-03-04T06:35:11;100889.13;;;2.04;100.00
17072;BME280;7731;50.720;6.912;2023-03-04T06:37:42;100888.31;;;1.95;100.00
17072;BME280;7731;50.720;6.912;2023-03-04T06:40:14;100890.88;;;1.75;100.00
17072;BME280;7731;50.720;6.912;2023-03-04T06:42:44;100886.59;;;2.01;100.00
17072;BME280;7731;50.720;6.912;2023-03-04T06:45:17;100883.91;;;2.53;100.00
17072;BME280;7731;50.720;6.912;2023-03-04T06:47:47;100888.25;;;2.22;100.00
17072;BME280;7731;50.720;6.912;2023-03-04T06:50:18;100897.59;;;1.96;100.00
17072;BME280;7731;50.720;6.912;2023-03-04T06:52:48;100899.31;;;1.84;100.00
17072;BME280;7731;50.720;6.912;2023-03-04T06:55:19;100893.31;;;2.29;100.00
17072;BME280;7731;50.720;6.912;2023-03-04T06:57:49;100896.72;;;2.18;100.00
17072;BME280;7731;50.720;6.912;2023-03-04T07:00:22;100899.22;;;2.28;100.00
17072;BME280;7731;50.720;6.912;2023-03-04T07:02:52;100909.41;;;2.07;100.00
17072;BME280;7731;50.720;6.912;2023-03-04T07:05:23;100905.94;;;2.45;100.00
17072;BME280;7731;50.720;6.912;2023-03-04T07:07:53;100907.66;;;2.37;100.00
17072;BME280;7731;50.720;6.912;2023-03-04T07:10:24;100906.00;;;2.17;100.00
17072;BME280;7731;50.720;6.912;2023-03-04T07:12:55;100907.69;;;2.09;100.00
17072;BME280;7731;50.720;6.912;2023-03-04T07:15:28;100909.38;;;2.24;100.00
17072;BME280;7731;50.720;6.912;2023-03-04T07:17:58;100912.72;;;2.37;100.00
17072;BME280;7731;50.720;6.912;2023-03-04T07:20:28;100914.44;;;2.22;100.00
17072;BME280;7731;50.720;6.912;2023-03-04T07:22:59;100915.31;;;2.23;100.00
17072;BME280;7731;50.720;6.912;2023-03-04T07:25:29;100930.53;;;2.12;100.00
17072;BME280;7731;50.720;6.912;2023-03-04T07:28:01;100927.13;;;2.13;100.00
17072;BME280;7731;50.720;6.912;2023-03-04T07:30:33;100924.63;;;2.07;100.00
17072;BME280;7731;50.720;6.912;2023-03-04T07:33:04;100924.59;;;2.19;100.00
17072;BME280;7731;50.720;6.912;2023-03-04T07:35:34;100919.53;;;2.16;100.00
17072;BME280;7731;50.720;6.912;2023-03-04T07:38:04;100921.19;;;2.29;100.00
17072;BME280;7731;50.720;6.912;2023-03-04T07:40:35;100926.25;;;2.32;100.00
17072;BME280;7731;50.720;6.912;2023-03-04T07:43:05;100923.66;;;2.48;100.00
17072;BME280;7731;50.720;6.912;2023-03-04T07:45:38;100923.47;;;2.96;100.00
17072;BME280;7731;50.720;6.912;2023-03-04T07:48:17;100927.50;;;3.29;100.00
17072;BME280;7731;50.720;6.912;2023-03-04T07:50:47;100922.63;;;2.94;100.00
17072;BME280;7731;50.720;6.912;2023-03-04T07:53:18;100925.22;;;2.83;100.00
17072;BME280;7731;50.720;6.912;2023-03-04T07:55:48;100922.47;;;3.20;100.00
17072;BME280;7731;50.720;6.912;2023-03-04T07:58:19;100921.06;;;2.66;100.00
17072;BME280;7731;50.720;6.912;2023-03-04T08:00:52;100928.63;;;2.80;100.00
17072;BME280;7731;50.720;6.912;2023-03-04T08:03:22;100919.34;;;2.72;100.00
17072;BME280;7731;50.720;6.912;2023-03-04T08:05:53;100935.47;;;2.64;100.00
17072;BME280;7731;50.720;6.912;2023-03-04T08:08:23;100931.19;;;2.70;100.00
17072;BME280;7731;50.720;6.912;2023-03-04T08:10:53;100932.88;;;2.78;100.00
17072;BME280;7731;50.720;6.912;2023-03-04T08:13:25;100936.25;;;2.76;100.00
17072;BME280;7731;50.720;6.912;2023-03-04T08:15:58;100931.97;;;2.85;100.00
17072;BME280;7731;50.720;6.912;2023-03-04T08:18:29;100931.97;;;2.81;100.00
17072;BME280;7731;50.720;6.912;2023-03-04T08:21:01;100943.84;;;2.82;100.00
17072;BME280;7731;50.720;6.912;2023-03-04T08:23:31;100940.47;;;2.80;100.00
17072;BME280;7731;50.720;6.912;2023-03-04T08:26:05;100938.75;;;2.82;100.00
17072;BME280;7731;50.720;6.912;2023-03-04T08:28:36;100942.91;;;2.98;100.00
17072;BME280;7731;50.720;6.912;2023-03-04T08:31:09;100943.38;;;3.59;100.00
17072;BME280;7731;50.720;6.912;2023-03-04T08:33:39;100935.75;;;3.57;100.00
17072;BME280;7731;50.720;6.912;2023-03-04T08:36:10;100932.53;;;3.38;100.00
17072;BME280;7731;50.720;6.912;2023-03-04T08:38:41;100942.75;;;3.29;100.00
17072;BME280;7731;50.720;6.912;2023-03-04T08:41:12;100943.63;;;3.19;100.00
17072;BME280;7731;50.720;6.912;2023-03-04T08:43:44;100944.41;;;3.36;100.00
17072;BME280;7731;50.720;6.912;2023-03-04T08:46:17;100943.44;;;3.48;100.00
17072;BME280;7731;50.720;6.912;2023-03-04T08:48:47;100938.97;;;3.81;100.00
17072;BME280;7731;50.720;6.912;2023-03-04T08:51:17;100941.75;;;3.53;100.00
17072;BME280;7731;50.720;6.912;2023-03-04T08:53:48;100952.78;;;3.45;100.00
17072;BME280;7731;50.720;6.912;2023-03-04T08:56:18;100945.25;;;3.34;100.00
17072;BME280;7731;50.720;6.912;2023-03-04T08:58:48;100945.94;;;3.56;100.00
17072;BME280;7731;50.720;6.912;2023-03-04T09:01:22;100937.22;;;3.88;100.00
17072;BME280;7731;50.720;6.912;2023-03-04T09:03:52;100947.50;;;3.72;100.00
17072;BME280;7731;50.720;6.912;2023-03-04T09:06:22;100936.94;;;4.16;100.00
17072;BME280;7731;50.720;6.912;2023-03-04T09:08:52;100943.78;;;4.10;100.00
17072;BME280;7731;50.720;6.912;2023-03-04T09:11:23;100941.38;;;3.97;100.00
17072;BME280;7731;50.720;6.912;2023-03-04T09:13:55;100942.00;;;4.20;100.00
17072;BME280;7731;50.720;6.912;2023-03-04T09:16:27;100938.72;;;4.10;100.00
17072;BME280;7731;50.720;6.912;2023-03-04T09:18:59;100940.44;;;4.05;100.00
17072;BME280;7731;50.720;6.912;2023-03-04T09:21:30;100937.75;;;4.22;100.00
17072;BME280;7731;50.720;6.912;2023-03-04T09:24:04;100928.16;;;4.46;100.00
17072;BME280;7731;50.720;6.912;2023-03-04T09:26:35;100921.47;;;4.37;100.00
17072;BME280;7731;50.720;6.912;2023-03-04T09:29:05;100933.09;;;4.58;100.00
17072;BME280;7731;50.720;6.912;2023-03-04T09:31:38;100938.47;;;4.32;100.00
17072;BME280;7731;50.720;6.912;2023-03-04T09:34:10;100931.63;;;4.37;100.00
17072;BME280;7731;50.720;6.912;2023-03-04T09:36:40;100931.66;;;4.34;100.00
17072;BME280;7731;50.720;6.912;2023-03-04T09:39:13;100928.91;;;4.54;100.00
17072;BME280;7731;50.720;6.912;2023-03-04T09:41:46;100924.41;;;4.76;100.00
17072;BME280;7731;50.720;6.912;2023-03-04T09:44:23;100935.47;;;5.36;100.00
17072;BME280;7731;50.720;6.912;2023-03-04T09:47:05;100933.53;;;5.50;100.00
17072;BME280;7731;50.720;6.912;2023-03-04T09:49:39;100933.31;;;5.07;100.00
17072;BME280;7731;50.720;6.912;2023-03-04T09:52:29;100932.38;;;5.14;100.00
17072;BME280;7731;50.720;6.912;2023-03-04T09:55:15;100928.41;;;4.94;100.00
17072;BME280;7731;50.720;6.912;2023-03-04T09:57:58;100924.41;;;4.76;100.00
17072;BME280;7731;50.720;6.912;2023-03-04T10:00:38;100922.44;;;4.95;100.00
17072;BME280;7731;50.720;6.912;2023-03-04T10:03:18;100922.47;;;5.53;100.00
17072;BME280;7731;50.720;6.912;2023-03-04T10:05:54;100918.41;;;5.41;100.00
17072;BME280;7731;50.720;6.912;2023-03-04T10:08:35;100921.63;;;5.52;100.00
17072;BME280;7731;50.720;6.912;2023-03-04T10:11:16;100916.47;;;5.55;100.00
17072;BME280;7731;50.720;6.912;2023-03-04T10:14:19;100918.72;;;5.74;100.00
17072;BME280;7731;50.720;6.912;2023-03-04T10:17:06;100917.06;;;6.21;100.00
17072;BME280;7731;50.720;6.912;2023-03-04T10:19:53;100918.81;;;6.19;100.00
17072;BME280;7731;50.720;6.912;2023-03-04T10:22:34;100918.50;;;5.86;100.00
17072;BME280;7731;50.720;6.912;2023-03-04T10:25:18;100916.41;;;5.59;100.00
17072;BME280;7731;50.720;6.912;2023-03-04T10:27:51;100911.56;;;5.43;100.00
17072;BME280;7731;50.720;6.912;2023-03-04T10:30:37;100914.91;;;5.48;100.00
17072;BME280;7731;50.720;6.912;2023-03-04T10:33:14;100911.81;;;5.28;100.00
17072;BME280;7731;50.720;6.912;2023-03-04T10:35:53;100907.72;;;5.16;100.00
17072;BME280;7731;50.720;6.912;2023-03-04T10:38:30;100911.59;;;5.40;100.00
17072;BME280;7731;50.720;6.912;2023-03-04T10:41:12;100909.00;;;5.43;100.00
17072;BME280;7731;50.720;6.912;2023-03-04T10:43:49;100907.44;;;5.38;100.00
17072;BME280;7731;50.720;6.912;2023-03-04T10:46:20;100910.34;;;5.11;100.00
17072;BME280;7731;50.720;6.912;2023-03-04T10:48:53;100915.13;;;5.33;100.00
17072;BME280;7731;50.720;6.912;2023-03-04T10:51:28;100905.91;;;4.62;100.00
17072;BME280;7731;50.720;6.912;2023-03-04T10:54:07;100916.44;;;5.01;100.00
17072;BME280;7731;50.720;6.912;2023-03-04T10:56:42;100903.84;;;4.92;100.00
17072;BME280;7731;50.720;6.912;2023-03-04T10:59:44;100898.06;;;5.38;100.00
17072;BME280;7731;50.720;6.912;2023-03-04T11:02:22;100904.81;;;4.81;100.00
17072;BME280;7731;50.720;6.912;2023-03-04T11:05:04;100892.38;;;5.19;100.00
17072;BME280;7731;50.720;6.912;2023-03-04T11:07:42;100898.06;;;5.38;100.00
17072;BME280;7731;50.720;6.912;2023-03-04T11:10:25;100889.72;;;5.28;100.00
17072;BME280;7731;50.720;6.912;2023-03-04T11:13:02;100882.78;;;5.38;100.00
17072;BME280;7731;50.720;6.912;2023-03-04T11:15:52;100887.41;;;5.66;100.00
17072;BME280;7731;50.720;6.912;2023-03-04T11:18:34;100886.50;;;6.18;100.00
17072;BME280;7731;50.720;6.912;2023-03-04T11:21:18;100880.94;;;5.96;100.00
17072;BME280;7731;50.720;6.912;2023-03-04T11:23:57;100888.06;;;5.77;100.00
17072;BME280;7731;50.720;6.912;2023-03-04T11:26:33;100885.50;;;5.77;100.00
17072;BME280;7731;50.720;6.912;2023-03-04T11:29:13;100882.75;;;5.89;100.00
17072;BME280;7731;50.720;6.912;2023-03-04T11:31:52;100876.72;;;6.40;100.00
17072;BME280;7731;50.720;6.912;2023-03-04T11:34:36;100874.75;;;6.53;100.00
17072;BME280;7731;50.720;6.912;2023-03-04T11:37:18;100878.41;;;5.98;100.00
17072;BME280;7731;50.720;6.912;2023-03-04T11:40:00;100874.19;;;5.94;100.00
17072;BME280;7731;50.720;6.912;2023-03-04T11:42:41;100874.22;;;6.39;100.00
17072;BME280;7731;50.720;6.912;2023-03-04T11:45:16;100875.91;;;5.93;100.00
17072;BME280;7731;50.720;6.912;2023-03-04T11:48:07;100867.44;;;6.36;100.00
17072;BME280;7731;50.720;6.912;2023-03-04T11:50:50;100857.47;;;6.25;100.00
17072;BME280;7731;50.720;6.912;2023-03-04T11:53:34;100855.44;;;6.40;100.00
17072;BME280;7731;50.720;6.912;2023-03-04T11:56:35;100850.47;;;6.34;100.00
17072;BME280;7731;50.720;6.912;2023-03-04T11:59:38;100847.94;;;6.32;100.00
17072;BME280;7731;50.720;6.912;2023-03-04T12:02:17;100849.34;;;6.47;99.33
17072;BME280;7731;50.720;6.912;2023-03-04T12:05:25;100851.09;;;6.47;100.00
17072;BME280;7731;50.720;6.912;2023-03-04T12:08:32;100838.63;;;6.30;100.00
17072;BME280;7731;50.720;6.912;2023-03-04T12:11:20;100833.84;;;6.14;100.00
17072;BME280;7731;50.720;6.912;2023-03-04T12:14:27;100828.69;;;6.17;100.00
17072;BME280;7731;50.720;6.912;2023-03-04T12:17:29;100825.78;;;6.36;100.00
17072;BME280;7731;50.720;6.912;2023-03-04T12:20:35;100819.34;;;6.18;100.00
17072;BME280;7731;50.720;6.912;2023-03-04T12:23:36;100819.03;;;6.33;100.00
17072;BME280;7731;50.720;6.912;2023-03-04T12:26:29;100817.81;;;6.09;100.00
17072;BME280;7731;50.720;6.912;2023-03-04T12:29:13;100819.72;;;5.98;100.00
17072;BME280;7731;50.720;6.912;2023-03-04T12:31:49;100819.59;;;6.05;100.00
17072;BME280;7731;50.720;6.912;2023-03-04T12:34:46;100816.72;;;5.74;100.00
17072;BME280;7731;50.720;6.912;2023-03-04T12:37:49;100816.03;;;5.66;100.00
17072;BME280;7731;50.720;6.912;2023-03-04T12:40:38;100799.06;;;5.65;100.00
17072;BME280;7731;50.720;6.912;2023-03-04T12:43:43;100798.69;;;5.83;100.00
17072;BME280;7731;50.720;6.912;2023-03-04T12:46:48;100794.84;;;6.09;100.00
17072;BME280;7731;50.720;6.912;2023-03-04T12:49:48;100784.34;;;7.00;98.42
17072;BME280;7731;50.720;6.912;2023-03-04T12:52:38;100792.16;;;6.15;100.00
17072;BME280;7731;50.720;6.912;2023-03-04T12:55:15;100784.78;;;6.81;97.37
17072;BME280;7731;50.720;6.912;2023-03-04T12:57:48;100786.50;;;6.41;98.87
17072;BME280;7731;50.720;6.912;2023-03-04T13:00:33;100784.25;;;6.28;98.32
17072;BME280;7731;50.720;6.912;2023-03-04T13:03:24;100784.56;;;6.12;100.00
17072;BME280;7731;50.720;6.912;2023-03-04T13:06:20;100778.63;;;6.52;98.59
17072;BME280;7731;50.720;6.912;2023-03-04T13:09:04;100772.56;;;6.17;100.00
17072;BME280;7731;50.720;6.912;2023-03-04T13:11:53;100765.88;;;6.51;98.89
17072;BME280;7731;50.720;6.912;2023-03-04T13:14:33;100763.38;;;6.49;97.76
17072;BME280;7731;50.720;6.912;2023-03-04T13:17:37;100760.81;;;6.49;99.27
17072;BME280;7731;50.720;6.912;2023-03-04T13:20:32;100757.41;;;6.50;100.00
17072;BME280;7731;50.720;6.912;2023-03-04T13:23:21;100759.03;;;6.14;100.00
17072;BME280;7731;50.720;6.912;2023-03-04T13:26:18;100758.34;;;6.46;100.00
17072;BME280;7731;50.720;6.912;2023-03-04T13:32:02;100748.94;;;6.09;100.00
17072;BME280;7731;50.720;6.912;2023-03-04T13:34:47;100748.94;;;6.09;100.00
17072;BME280;7731;50.720;6.912;2023-03-04T13:37:32;100759.31;;;6.00;100.00
17072;BME280;7731;50.720;6.912;2023-03-04T13:40:39;100745.06;;;5.88;100.00
17072;BME280;7731;50.720;6.912;2023-03-04T13:43:27;100752.22;;;6.14;100.00
17072;BME280;7731;50.720;6.912;2023-03-04T13:46:39;100738.31;;;6.28;100.00